createdAt,value
2022-11-27T00:01:41.212Z,40.27
2022-11-27T00:04:12.429Z,42.53
2022-11-27T00:06:42.566Z,41.33
2022-11-27T00:09:13.959Z,44.40
2022-11-27T00:11:43.322Z,41.43
2022-11-27T00:14:14.258Z,42.83
2022-11-27T00:16:44.796Z,39.23
2022-11-27T00:19:13.951Z,40.27
2022-11-27T00:21:42.790Z,42.43
2022-11-27T00:24:13.295Z,42.37
2022-11-27T00:26:42.178Z,38.03
2022-11-27T00:29:11.592Z,39.27
2022-11-27T00:31:40.810Z,37.93
2022-11-27T00:34:12.227Z,37.43
2022-11-27T00:36:43.971Z,43.63
2022-11-27T00:39:15.745Z,38.00
2022-11-27T00:41:44.840Z,42.57
2022-11-27T00:44:14.851Z,37.83
2022-11-27T00:46:44.077Z,38.87
2022-11-27T00:49:16.357Z,42.50
2022-11-27T00:51:45.400Z,40.87
2022-11-27T00:54:14.336Z,41.63
2022-11-27T00:56:43.268Z,39.80
2022-11-27T00:59:13.045Z,38.07
2022-11-27T01:01:44.391Z,44.03
2022-11-27T01:04:17.751Z,42.50
2022-11-27T01:06:47.124Z,42.10
2022-11-27T01:09:17.669Z,40.37
2022-11-27T01:11:46.680Z,40.50
2022-11-27T01:14:17.657Z,40.97
2022-11-27T01:16:47.058Z,38.73
2022-11-27T01:19:17.703Z,36.70
2022-11-27T01:21:47.495Z,39.97
2022-11-27T01:24:17.578Z,41.73
2022-11-27T01:26:46.974Z,41.13
2022-11-27T01:29:15.978Z,41.63
2022-11-27T01:31:45.271Z,39.30
2022-11-27T01:34:19.092Z,40.90
2022-11-27T01:36:47.992Z,43.30
2022-11-27T01:39:19.665Z,39.13
2022-11-27T01:41:49.703Z,46.17
2022-11-27T01:44:55.158Z,45.60
2022-11-27T01:47:39.560Z,44.10
2022-11-27T01:50:18.810Z,44.67
2022-11-27T01:52:51.733Z,46.30
2022-11-27T01:55:27.276Z,48.70
2022-11-27T01:58:00.420Z,44.53
2022-11-27T02:00:29.624Z,47.43
2022-11-27T02:02:58.695Z,49.43
2022-11-27T02:05:30.168Z,49.03
2022-11-27T02:08:01.560Z,45.03
2022-11-27T02:10:41.873Z,45.80
2022-11-27T02:13:14.151Z,40.47
2022-11-27T02:15:48.024Z,42.13
2022-11-27T02:18:29.596Z,46.90
2022-11-27T02:21:07.933Z,42.47
2022-11-27T02:24:02.598Z,46.60
2022-11-27T02:27:13.580Z,41.80
2022-11-27T02:29:45.921Z,47.20
2022-11-27T02:32:20.530Z,47.97
2022-11-27T02:34:53.000Z,48.77
2022-11-27T02:37:28.684Z,53.20
2022-11-27T02:40:03.116Z,46.33
2022-11-27T02:42:36.730Z,50.17
2022-11-27T02:45:12.232Z,52.70
2022-11-27T02:47:42.456Z,46.97
2022-11-27T02:50:15.372Z,53.37
2022-11-27T02:52:47.020Z,46.73
2022-11-27T02:55:20.372Z,51.47
2022-11-27T02:57:51.016Z,47.33
2022-11-27T03:00:21.897Z,50.67
2022-11-27T03:02:54.528Z,50.90
2022-11-27T03:05:24.936Z,48.00
2022-11-27T03:08:01.068Z,52.83
2022-11-27T03:10:34.158Z,54.70
2022-11-27T03:13:04.911Z,53.83
2022-11-27T03:15:41.406Z,53.73
2022-11-27T03:18:19.797Z,55.50
2022-11-27T03:20:53.951Z,57.07
2022-11-27T03:23:22.972Z,57.97
2022-11-27T03:25:51.964Z,60.70
2022-11-27T03:28:20.970Z,53.13
2022-11-27T03:30:51.544Z,55.23
2022-11-27T03:33:20.574Z,57.77
2022-11-27T03:35:49.511Z,59.80
2022-11-27T03:38:18.596Z,61.30
2022-11-27T03:40:57.155Z,60.53
2022-11-27T03:43:31.266Z,59.50
2022-11-27T03:46:07.896Z,58.13
2022-11-27T03:48:44.936Z,61.60
2022-11-27T03:51:22.177Z,58.13
2022-11-27T03:53:58.177Z,63.73
2022-11-27T03:56:39.211Z,55.53
2022-11-27T03:59:14.017Z,52.90
2022-11-27T04:01:44.507Z,63.10
2022-11-27T04:04:13.485Z,58.60
2022-11-27T04:06:42.512Z,62.73
2022-11-27T04:09:11.467Z,61.73
2022-11-27T04:11:40.466Z,67.37
2022-11-27T04:14:09.478Z,61.17
2022-11-27T04:16:38.493Z,63.20
2022-11-27T04:19:09.677Z,67.70
2022-11-27T04:21:38.635Z,65.17
2022-11-27T04:24:07.928Z,61.13
2022-11-27T04:26:36.821Z,64.50
2022-11-27T04:29:05.774Z,65.27
2022-11-27T04:31:34.773Z,61.50
2022-11-27T04:34:03.744Z,66.77
2022-11-27T04:36:39.047Z,59.30
2022-11-27T04:39:08.631Z,68.53
2022-11-27T04:41:37.594Z,67.20
2022-11-27T04:44:06.797Z,62.90
2022-11-27T04:46:35.884Z,55.43
2022-11-27T04:49:05.071Z,62.13
2022-11-27T04:51:35.401Z,59.67
2022-11-27T04:54:04.452Z,64.40
2022-11-27T04:56:33.419Z,54.57
2022-11-27T04:59:02.868Z,61.90
2022-11-27T05:01:31.759Z,60.53
2022-11-27T05:04:00.710Z,58.63
2022-11-27T05:06:29.653Z,60.37
2022-11-27T05:09:02.375Z,56.47
2022-11-27T05:11:32.665Z,58.37
2022-11-27T05:14:17.192Z,55.67
2022-11-27T05:16:48.193Z,53.67
2022-11-27T05:19:19.057Z,60.73
2022-11-27T05:21:50.568Z,58.80
2022-11-27T05:24:21.976Z,56.00
2022-11-27T05:26:51.353Z,56.37
2022-11-27T05:29:20.796Z,61.83
2022-11-27T05:31:49.956Z,58.63
2022-11-27T05:34:19.037Z,57.57
2022-11-27T05:36:48.277Z,59.37
2022-11-27T05:39:17.342Z,58.67
2022-11-27T05:41:47.711Z,60.90
2022-11-27T05:44:17.192Z,62.83
2022-11-27T05:46:46.160Z,64.60
2022-11-27T05:49:16.733Z,59.33
2022-11-27T05:51:51.058Z,54.53
2022-11-27T05:54:21.095Z,63.67
2022-11-27T05:56:51.410Z,57.57
2022-11-27T05:59:20.500Z,56.17
2022-11-27T06:01:50.649Z,59.77
2022-11-27T06:04:20.158Z,58.87
2022-11-27T06:06:49.080Z,62.63
2022-11-27T06:09:17.948Z,62.77
2022-11-27T06:11:46.860Z,64.47
2022-11-27T06:14:17.194Z,71.43
2022-11-27T06:16:46.290Z,62.97
2022-11-27T06:19:15.309Z,67.23
2022-11-27T06:21:46.733Z,70.43
2022-11-27T06:24:15.671Z,70.87
2022-11-27T06:26:44.637Z,70.23
2022-11-27T06:29:13.564Z,71.67
2022-11-27T06:31:44.016Z,82.47
2022-11-27T06:34:13.473Z,76.60
2022-11-27T06:36:42.437Z,84.17
2022-11-27T06:39:13.073Z,89.00
2022-11-27T06:41:42.662Z,88.30
2022-11-27T06:44:11.836Z,71.00
2022-11-27T06:46:40.873Z,63.33
2022-11-27T06:49:11.332Z,63.10
2022-11-27T06:51:40.356Z,62.73
2022-11-27T06:54:09.257Z,69.40
2022-11-27T06:56:38.180Z,62.67
2022-11-27T06:59:07.032Z,72.30
2022-11-27T07:01:36.810Z,70.10
2022-11-27T07:04:06.012Z,78.30
2022-11-27T07:06:36.356Z,80.60
2022-11-27T07:09:06.070Z,75.63
2022-11-27T07:11:36.016Z,71.47
2022-11-27T07:14:06.831Z,65.30
2022-11-27T07:16:37.510Z,67.40
2022-11-27T07:19:07.915Z,71.83
2022-11-27T07:21:39.971Z,76.60
2022-11-27T07:24:09.635Z,74.97
2022-11-27T07:26:38.656Z,74.27
2022-11-27T07:29:07.595Z,64.73
2022-11-27T07:31:36.692Z,70.83
2022-11-27T07:34:08.684Z,69.47
2022-11-27T07:36:43.920Z,66.23
2022-11-27T07:39:12.775Z,58.73
2022-11-27T07:41:41.975Z,61.67
2022-11-27T07:44:11.502Z,59.93
2022-11-27T07:46:40.464Z,57.97
2022-11-27T07:49:09.351Z,62.87
2022-11-27T07:51:38.215Z,59.20
2022-11-27T07:54:08.675Z,53.07
2022-11-27T07:56:37.619Z,56.07
2022-11-27T07:59:06.562Z,62.77
2022-11-27T08:01:35.543Z,62.63
2022-11-27T08:04:04.510Z,62.23
2022-11-27T08:06:33.470Z,56.87
2022-11-27T08:09:02.415Z,64.87
2022-11-27T08:11:35.499Z,62.47
2022-11-27T08:14:06.323Z,61.93
2022-11-27T08:16:36.791Z,55.20
2022-11-27T08:19:06.003Z,60.37
2022-11-27T08:21:34.955Z,59.43
2022-11-27T08:24:03.987Z,55.37
2022-11-27T08:26:37.336Z,62.50
2022-11-27T08:29:06.925Z,61.40
2022-11-27T08:31:36.301Z,65.27
2022-11-27T08:34:05.914Z,59.93
2022-11-27T08:36:35.075Z,60.87
2022-11-27T08:39:04.299Z,66.50
2022-11-27T08:41:35.824Z,65.30
2022-11-27T08:44:09.175Z,68.33
2022-11-27T08:46:38.955Z,62.67
2022-11-27T08:49:08.033Z,66.90
2022-11-27T08:51:37.547Z,63.73
2022-11-27T08:54:07.240Z,62.50
2022-11-27T08:56:37.963Z,67.93
2022-11-27T08:59:07.301Z,60.50
2022-11-27T09:01:36.690Z,67.50
2022-11-27T09:04:06.140Z,64.07
2022-11-27T09:06:36.470Z,63.43
2022-11-27T09:09:07.384Z,65.17
2022-11-27T09:11:38.764Z,67.10
2022-11-27T09:14:08.927Z,63.27
2022-11-27T09:16:37.973Z,63.77
2022-11-27T09:19:07.021Z,64.70
2022-11-27T09:21:36.057Z,61.40
2022-11-27T09:24:05.216Z,63.27
2022-11-27T09:26:34.241Z,61.73
2022-11-27T09:29:04.616Z,61.17
2022-11-27T09:31:33.578Z,57.67
2022-11-27T09:34:02.523Z,51.73
2022-11-27T09:36:31.474Z,58.67
2022-11-27T09:39:00.656Z,58.70
2022-11-27T09:41:45.175Z,56.27
2022-11-27T09:44:27.183Z,53.83
2022-11-27T09:46:57.577Z,55.40
2022-11-27T09:49:30.861Z,59.37
2022-11-27T09:52:04.441Z,56.90
2022-11-27T09:54:39.372Z,62.60
2022-11-27T09:57:15.128Z,52.53
2022-11-27T09:59:50.974Z,57.57
2022-11-27T10:02:28.954Z,50.57
2022-11-27T10:05:13.776Z,54.03
2022-11-27T10:08:03.302Z,52.10
2022-11-27T10:10:42.651Z,55.93
2022-11-27T10:13:23.336Z,53.03
2022-11-27T10:15:58.378Z,51.80
2022-11-27T10:18:40.543Z,56.63
2022-11-27T10:21:19.948Z,52.30
2022-11-27T10:23:56.277Z,53.00
2022-11-27T10:26:33.501Z,55.10
2022-11-27T10:29:12.341Z,54.73
2022-11-27T10:31:49.273Z,51.93
2022-11-27T10:34:27.961Z,54.53
2022-11-27T10:36:59.052Z,51.43
2022-11-27T10:39:34.910Z,52.10
2022-11-27T10:42:10.493Z,52.10
2022-11-27T10:44:44.151Z,52.53
2022-11-27T10:47:16.752Z,52.40
2022-11-27T10:49:46.431Z,49.00
2022-11-27T10:52:17.817Z,49.73
2022-11-27T10:54:52.444Z,51.97
2022-11-27T10:57:52.175Z,48.80
2022-11-27T11:00:23.191Z,49.70
2022-11-27T11:03:01.644Z,56.33
2022-11-27T11:06:04.036Z,51.47
2022-11-27T11:08:21.516Z,47.63
2022-11-27T11:10:54.182Z,50.43
2022-11-27T11:13:27.441Z,53.60
2022-11-27T11:16:00.320Z,50.27
2022-11-27T11:18:33.284Z,47.93
2022-11-27T11:21:03.985Z,46.90
2022-11-27T11:23:35.649Z,45.87
2022-11-27T11:26:08.778Z,48.07
2022-11-27T11:28:55.793Z,50.93
2022-11-27T11:31:32.654Z,46.90
2022-11-27T11:34:07.940Z,45.77
2022-11-27T11:36:37.721Z,48.97
2022-11-27T11:39:06.947Z,44.50
2022-11-27T11:41:39.800Z,46.37
2022-11-27T11:44:24.080Z,49.27
2022-11-27T11:46:54.857Z,44.47
2022-11-27T11:49:27.973Z,48.23
2022-11-27T11:52:13.177Z,47.97
2022-11-27T11:54:54.939Z,47.63
2022-11-27T11:57:47.979Z,45.60
2022-11-27T12:00:19.265Z,50.60
2022-11-27T12:03:09.998Z,49.27
2022-11-27T12:05:47.879Z,52.40
2022-11-27T12:08:35.162Z,46.53
2022-11-27T12:11:13.488Z,50.80
2022-11-27T12:13:54.489Z,49.07
2022-11-27T12:16:33.365Z,49.87
2022-11-27T12:19:25.943Z,43.37
2022-11-27T12:22:06.000Z,47.30
2022-11-27T12:24:47.586Z,49.57
2022-11-27T12:27:26.692Z,47.67
2022-11-27T12:30:15.946Z,46.13
2022-11-27T12:33:16.876Z,48.13
2022-11-27T12:35:51.439Z,45.57
2022-11-27T12:38:38.977Z,47.03
2022-11-27T12:41:28.252Z,44.43
2022-11-27T12:44:00.605Z,44.30
2022-11-27T12:46:37.822Z,49.40
2022-11-27T12:49:14.002Z,53.27
2022-11-27T12:51:49.742Z,48.73
2022-11-27T12:54:23.952Z,53.77
2022-11-27T12:56:58.111Z,44.30
2022-11-27T12:59:33.749Z,43.60
2022-11-27T13:02:12.586Z,44.57
2022-11-27T13:04:46.363Z,44.07
2022-11-27T13:07:20.293Z,41.27
2022-11-27T13:09:58.309Z,43.90
2022-11-27T13:12:32.595Z,44.17
2022-11-27T13:15:05.930Z,45.90
2022-11-27T13:17:39.841Z,44.20
2022-11-27T13:20:18.141Z,42.27
2022-11-27T13:22:49.193Z,39.80
2022-11-27T13:25:20.141Z,42.93
2022-11-27T13:27:53.393Z,44.97
2022-11-27T13:30:25.080Z,40.30
2022-11-27T13:32:57.600Z,45.10
2022-11-27T13:35:31.392Z,39.27
2022-11-27T13:38:09.109Z,44.27
2022-11-27T13:40:43.480Z,40.97
2022-11-27T13:43:28.993Z,41.50
2022-11-27T13:46:07.382Z,42.47
2022-11-27T13:48:39.587Z,43.27
2022-11-27T13:51:11.240Z,38.93
2022-11-27T13:53:42.463Z,41.33
2022-11-27T13:56:12.880Z,41.77
2022-11-27T13:58:43.998Z,40.93
2022-11-27T14:01:18.450Z,44.93
2022-11-27T14:03:47.942Z,40.90
2022-11-27T14:06:21.170Z,40.27
2022-11-27T14:08:57.926Z,40.33
2022-11-27T14:11:40.283Z,41.93
2022-11-27T14:14:21.519Z,42.37
2022-11-27T14:16:59.734Z,44.60
2022-11-27T14:19:34.470Z,41.90
2022-11-27T14:22:15.020Z,43.17
2022-11-27T14:24:46.146Z,43.43
2022-11-27T14:27:22.018Z,40.93
2022-11-27T14:29:52.106Z,42.57
2022-11-27T14:32:22.497Z,43.60
2022-11-27T14:34:51.468Z,42.40
2022-11-27T14:37:26.157Z,44.20
2022-11-27T14:39:55.229Z,43.27
2022-11-27T14:42:29.273Z,40.53
2022-11-27T14:45:07.645Z,40.20
2022-11-27T14:47:37.907Z,41.37
2022-11-27T14:50:08.460Z,40.90
2022-11-27T14:52:38.531Z,45.00
2022-11-27T14:55:14.727Z,38.90
2022-11-27T14:57:45.940Z,41.37
2022-11-27T15:00:21.028Z,40.53
2022-11-27T15:02:53.225Z,43.07
2022-11-27T15:05:24.613Z,43.87
2022-11-27T15:07:55.872Z,39.50
2022-11-27T15:10:34.600Z,41.17
2022-11-27T15:13:07.694Z,41.30
2022-11-27T15:15:43.081Z,45.13
2022-11-27T15:18:23.300Z,42.30
2022-11-27T15:20:53.440Z,38.73
2022-11-27T15:23:25.720Z,38.47
2022-11-27T15:26:13.858Z,46.57
2022-11-27T15:28:52.921Z,45.30
2022-11-27T15:31:31.123Z,41.97
2022-11-27T15:34:03.219Z,41.07
2022-11-27T15:36:42.098Z,40.13
2022-11-27T15:39:23.624Z,40.80
2022-11-27T15:41:55.496Z,40.07
2022-11-27T15:44:27.391Z,39.97
2022-11-27T15:46:59.021Z,42.13
2022-11-27T15:49:32.131Z,44.90
2022-11-27T15:52:01.351Z,40.40
2022-11-27T15:54:30.287Z,42.00
2022-11-27T15:56:59.244Z,43.33
2022-11-27T15:59:30.201Z,37.60
2022-11-27T16:01:59.372Z,41.47
2022-11-27T16:04:28.561Z,41.40
2022-11-27T16:06:57.996Z,43.90
2022-11-27T16:09:27.138Z,46.43
2022-11-27T16:11:56.625Z,44.30
2022-11-27T16:14:25.778Z,43.17
2022-11-27T16:16:56.535Z,41.03
2022-11-27T16:19:26.372Z,39.77
2022-11-27T16:21:55.818Z,45.77
2022-11-27T16:24:29.391Z,41.63
2022-11-27T16:26:58.758Z,43.13
2022-11-27T16:29:27.816Z,46.00
2022-11-27T16:31:58.363Z,37.73
2022-11-27T16:34:28.074Z,43.00
2022-11-27T16:36:57.580Z,39.40
2022-11-27T16:39:27.007Z,44.23
2022-11-27T16:41:56.352Z,43.37
2022-11-27T16:44:26.131Z,43.07
2022-11-27T16:46:55.783Z,42.27
2022-11-27T16:49:27.121Z,45.60
2022-11-27T16:51:57.478Z,40.83
2022-11-27T16:54:26.680Z,42.37
2022-11-27T16:56:57.075Z,41.07
2022-11-27T16:59:26.760Z,42.23
2022-11-27T17:01:56.540Z,43.27
2022-11-27T17:04:27.614Z,41.93
2022-11-27T17:06:57.304Z,41.40
2022-11-27T17:09:29.923Z,45.17
2022-11-27T17:12:02.349Z,46.77
2022-11-27T17:14:31.792Z,42.37
2022-11-27T17:17:01.083Z,44.60
2022-11-27T17:19:34.561Z,41.30
2022-11-27T17:22:03.917Z,39.03
2022-11-27T17:24:36.976Z,44.30
2022-11-27T17:27:08.636Z,41.83
2022-11-27T17:29:39.138Z,46.50
2022-11-27T17:32:10.201Z,46.13
2022-11-27T17:34:41.221Z,46.77
2022-11-27T17:37:11.419Z,48.80
2022-11-27T17:39:43.869Z,45.87
2022-11-27T17:42:17.078Z,48.60
2022-11-27T17:44:50.380Z,47.93
2022-11-27T17:47:19.979Z,47.37
2022-11-27T17:49:50.937Z,50.07
2022-11-27T17:52:20.565Z,47.47
2022-11-27T17:54:50.331Z,50.90
2022-11-27T17:57:19.837Z,51.53
2022-11-27T17:59:53.051Z,50.20
2022-11-27T18:02:22.775Z,46.53
2022-11-27T18:04:53.760Z,49.00
2022-11-27T18:07:23.622Z,53.20
2022-11-27T18:09:54.886Z,47.07
2022-11-27T18:12:24.756Z,49.67
2022-11-27T18:15:01.027Z,49.53
2022-11-27T18:17:31.751Z,50.67
2022-11-27T18:20:02.310Z,51.97
2022-11-27T18:22:32.086Z,51.77
2022-11-27T18:25:01.746Z,50.83
2022-11-27T18:27:31.679Z,55.97
2022-11-27T18:30:02.292Z,51.37
2022-11-27T18:32:32.059Z,55.33
2022-11-27T18:35:03.337Z,54.83
2022-11-27T18:37:32.450Z,54.77
2022-11-27T18:40:01.990Z,53.47
2022-11-27T18:42:33.641Z,53.40
2022-11-27T18:45:04.441Z,54.10
2022-11-27T18:47:35.000Z,50.37
2022-11-27T18:50:09.374Z,55.63
2022-11-27T18:52:39.511Z,56.77
2022-11-27T18:55:10.211Z,52.80
2022-11-27T18:57:39.935Z,52.73
2022-11-27T19:00:10.901Z,51.50
2022-11-27T19:02:40.737Z,56.43
2022-11-27T19:05:11.282Z,55.63
2022-11-27T19:07:40.870Z,51.73
2022-11-27T19:10:12.283Z,51.73
2022-11-27T19:12:41.906Z,50.67
2022-11-27T19:15:13.451Z,51.77
2022-11-27T19:17:43.160Z,52.83
2022-11-27T19:20:15.353Z,53.93
2022-11-27T19:22:44.577Z,57.47
2022-11-27T19:25:14.071Z,51.67
2022-11-27T19:27:43.799Z,50.67
2022-11-27T19:30:14.007Z,54.17
2022-11-27T19:32:45.627Z,53.90
2022-11-27T19:35:16.792Z,51.73
2022-11-27T19:37:45.979Z,56.23
2022-11-27T19:40:16.331Z,58.67
2022-11-27T19:42:46.058Z,65.53
2022-11-27T19:45:16.007Z,60.47
2022-11-27T19:47:45.718Z,64.00
2022-11-27T19:50:19.137Z,70.83
2022-11-27T19:52:48.799Z,73.07
2022-11-27T19:55:19.806Z,68.33
2022-11-27T19:57:49.297Z,71.27
2022-11-27T20:00:19.475Z,71.77
2022-11-27T20:02:50.747Z,73.77
2022-11-27T20:05:22.191Z,72.13
2022-11-27T20:07:52.941Z,78.73
2022-11-27T20:10:22.877Z,75.60
2022-11-27T20:12:52.937Z,74.43
2022-11-27T20:15:22.682Z,71.00
2022-11-27T20:17:52.741Z,75.13
2022-11-27T20:20:23.908Z,78.37
2022-11-27T20:22:54.051Z,83.73
2022-11-27T20:25:27.363Z,82.57
2022-11-27T20:27:57.946Z,77.13
2022-11-27T20:30:28.170Z,84.67
2022-11-27T20:32:57.773Z,83.60
2022-11-27T20:35:30.179Z,79.73
2022-11-27T20:38:00.091Z,85.83
2022-11-27T20:40:29.973Z,86.03
2022-11-27T20:43:00.276Z,77.30
2022-11-27T20:45:30.066Z,85.60
2022-11-27T20:47:59.957Z,88.60
2022-11-27T20:50:31.120Z,86.00
2022-11-27T20:53:01.696Z,84.70
2022-11-27T20:55:31.180Z,84.83
2022-11-27T20:58:00.603Z,78.93
2022-11-27T21:00:30.356Z,85.17
2022-11-27T21:03:00.552Z,84.90
2022-11-27T21:05:32.321Z,85.67
2022-11-27T21:08:02.013Z,87.87
2022-11-27T21:10:31.085Z,86.80
2022-11-27T21:13:00.226Z,84.90
2022-11-27T21:15:29.772Z,94.93
2022-11-27T21:17:58.979Z,97.40
2022-11-27T21:20:29.247Z,93.93
2022-11-27T21:22:59.617Z,86.43
2022-11-27T21:25:28.659Z,94.57
2022-11-27T21:27:58.341Z,98.63
2022-11-27T21:30:27.421Z,94.57
2022-11-27T21:32:56.472Z,98.50
2022-11-27T21:35:30.238Z,91.10
2022-11-27T21:38:02.069Z,96.37
2022-11-27T21:40:31.099Z,91.50
2022-11-27T21:43:00.203Z,94.47
2022-11-27T21:45:29.544Z,101.57
2022-11-27T21:47:58.666Z,96.10
2022-11-27T21:50:28.036Z,91.90
2022-11-27T21:52:57.821Z,90.47
2022-11-27T21:55:28.202Z,98.33
2022-11-27T21:57:57.482Z,90.50
2022-11-27T22:00:26.415Z,87.17
2022-11-27T22:02:55.483Z,93.90
2022-11-27T22:05:24.480Z,93.73
2022-11-27T22:07:53.520Z,92.50
2022-11-27T22:10:22.572Z,94.90
2022-11-27T22:12:52.934Z,95.90
2022-11-27T22:15:22.077Z,92.60
2022-11-27T22:17:51.067Z,87.90
2022-11-27T22:20:20.137Z,94.57
2022-11-27T22:22:49.080Z,98.40
2022-11-27T22:25:18.962Z,89.37
2022-11-27T22:27:47.992Z,91.97
2022-11-27T22:30:19.079Z,92.97
2022-11-27T22:32:48.253Z,87.40
2022-11-27T22:35:17.685Z,87.37
2022-11-27T22:37:46.833Z,89.93
2022-11-27T22:40:16.683Z,88.00
2022-11-27T22:42:45.650Z,87.50
2022-11-27T22:45:14.777Z,91.10
2022-11-27T22:47:45.282Z,83.50
2022-11-27T22:50:14.349Z,83.90
2022-11-27T22:52:43.394Z,82.00
2022-11-27T22:55:12.296Z,87.07
2022-11-27T22:57:41.474Z,89.60
2022-11-27T23:00:11.508Z,88.83
2022-11-27T23:02:40.657Z,90.63
2022-11-27T23:05:11.678Z,85.93
2022-11-27T23:07:41.303Z,84.27
2022-11-27T23:10:10.881Z,86.87
2022-11-27T23:12:39.875Z,89.80
2022-11-27T23:15:09.301Z,84.87
2022-11-27T23:17:38.175Z,85.30
2022-11-27T23:20:08.663Z,85.33
2022-11-27T23:22:39.143Z,89.13
2022-11-27T23:25:08.964Z,88.60
2022-11-27T23:27:37.926Z,92.87
2022-11-27T23:30:08.240Z,88.50
2022-11-27T23:32:37.258Z,83.93
2022-11-27T23:35:06.543Z,91.17
2022-11-27T23:37:35.458Z,88.10
2022-11-27T23:40:07.306Z,86.97
2022-11-27T23:42:36.658Z,88.03
2022-11-27T23:45:06.354Z,88.17
2022-11-27T23:47:35.277Z,78.77
2022-11-27T23:50:04.217Z,79.57
2022-11-27T23:52:33.212Z,80.77
2022-11-27T23:55:02.239Z,85.73
2022-11-27T23:57:32.536Z,83.37
